P/v Golden Gate — WDE5665 — position and weather

sailwx.info

Track history (hours):
 
Tides and Currents Weather Stations Pressure Air Temp Water Temp Dewpoint Dewpoint Depression Visibility Wind Speed Wind Dir Waves Ship Positions

P/v Golden Gate

Owner: San Francisco Bar Pilots Benevolent and Protective, San Francisco, CA. More information available from US FCC via Universal Licensing System and Coast Guard Vessel Documentation Center.

Last reported at 2017-Nov-20 00:31 UTC. Time now 2017-Nov-21 04:51 UTC.
Position N 37°48' W 122°23'.

Length 21 m.

Type: Pilot. MMSI: 367370010.

Date/timePositionNaut miles runAvg speedWind from/ knotsBaromVisibWave heightAir tempDewpointWater temp
2017-Nov-20 00:31N 37°48' W 122°23'1 1.4
2017-Nov-20 00:00N 37°48' W 122°24'0 0.0
2017-Nov-19 23:30N 37°48' W 122°24'0 0.0
2017-Nov-19 23:00N 37°48' W 122°24'0 0.0
2017-Nov-19 22:30N 37°48' W 122°24'1 2.8
2017-Nov-19 22:01N 37°47' W 122°23'2 3.7
2017-Nov-19 21:31N 37°48' W 122°21'3 4.9
2017-Nov-19 20:59N 37°48' W 122°24'0 0.0
2017-Nov-19 20:30N 37°48' W 122°24'0 0.0
2017-Nov-19 20:00N 37°48' W 122°24'3 5.4
2017-Nov-19 19:30N 37°46' W 122°21'3 5.4
2017-Nov-19 19:00N 37°48' W 122°24'0 0.0
2017-Nov-19 18:30N 37°48' W 122°24'0 0.0
2017-Nov-19 18:00N 37°48' W 122°24'3 5.1
2017-Nov-19 17:31N 37°48' W 122°21'4 8.9
2017-Nov-19 17:00N 37°50' W 122°26'2 4.7
2017-Nov-19 16:30N 37°48' W 122°24'4 7.2
2017-Nov-19 16:00N 37°48' W 122°19'3 5.6
2017-Nov-19 15:31N 37°45' W 122°21'3 5.6
2017-Nov-19 15:00N 37°48' W 122°20'3 6.7
2017-Nov-19 14:30N 37°48' W 122°24'0 0.0
2017-Nov-19 14:00N 37°48' W 122°24'0 0.0
2017-Nov-19 13:30N 37°48' W 122°24'1 2.4
2017-Nov-19 13:00N 37°49' W 122°25'917.1
2017-Nov-19 12:30N 37°47' W 122°35'2 4.3
2017-Nov-19 11:59N 37°47' W 122°33'1020.2
2017-Nov-19 11:31N 37°48' W 122°20'3 5.4
2017-Nov-19 11:00N 37°48' W 122°24'0 0.0
2017-Nov-19 10:30N 37°48' W 122°24'0 0.0
2017-Nov-19 10:00N 37°48' W 122°24'0 0.0
2017-Nov-19 09:30N 37°48' W 122°24'0 0.0
2017-Nov-19 09:01N 37°48' W 122°24'0 0.0
2017-Nov-19 08:31N 37°48' W 122°24'0 0.0
2017-Nov-19 08:01N 37°48' W 122°24'0 0.0
2017-Nov-19 07:31N 37°48' W 122°24'917.2
2017-Nov-19 07:01N 37°47' W 122°35'713.3
2017-Nov-19 06:30N 37°49' W 122°27'2 4.7
2017-Nov-19 06:00N 37°48' W 122°24'3 6.3
2017-Nov-19 05:31N 37°48' W 122°20'611.2
2017-Nov-19 05:00N 37°49' W 122°27'3 5.1
2017-Nov-19 04:30N 37°48' W 122°24'0 0.2
2017-Nov-19 04:00N 37°48' W 122°24'0 0.0
2017-Nov-19 03:30N 37°48' W 122°24'1 1.2
2017-Nov-19 03:01N 37°48' W 122°23'3 6.2
2017-Nov-19 02:30N 37°48' W 122°19'3 5.1
2017-Nov-19 02:01N 37°46' W 122°21'714.4
2017-Nov-19 01:30N 37°48' W 122°30'714.5
2017-Nov-19 01:00N 37°45' W 122°38'1122.1
2017-Nov-19 00:30N 37°49' W 122°25'1 2.4
2017-Nov-19 00:00N 37°48' W 122°24'4 8.3
2017-Nov-18 23:31N 37°45' W 122°20'1 2.6
2017-Nov-18 23:01N 37°46' W 122°21'3 5.8
2017-Nov-18 22:30N 37°48' W 122°24'0 0.0
2017-Nov-18 22:00N 37°48' W 122°24'0 0.0
2017-Nov-18 21:30N 37°48' W 122°24'0 0.0
2017-Nov-18 21:01N 37°48' W 122°24'3 6.9
2017-Nov-18 20:31N 37°46' W 122°21'3 6.9
2017-Nov-18 20:01N 37°48' W 122°24'0 0.0
2017-Nov-18 19:31N 37°48' W 122°24'1 2.4
2017-Nov-18 19:00N 37°49' W 122°25'4 7.9
2017-Nov-18 18:31N 37°46' W 122°21'3 5.5
2017-Nov-18 18:00N 37°48' W 122°24'4 7.3
2017-Nov-18 17:31N 37°49' W 122°28'4 7.3
2017-Nov-18 17:00N 37°48' W 122°24'2 4.1
2017-Nov-18 16:30N 37°48' W 122°21'1 2.2
2017-Nov-18 16:00N 37°47' W 122°22'1 2.9
2017-Nov-18 15:30N 37°48' W 122°24'4 8.0
2017-Nov-18 15:01N 37°48' W 122°19'2 3.3
2017-Nov-18 14:31N 37°48' W 122°21'2 5.0
2017-Nov-18 14:00N 37°48' W 122°24'0 0.0
2017-Nov-18 13:30N 37°48' W 122°24'0 0.0
2017-Nov-18 13:00N 37°48' W 122°24'0 0.0
2017-Nov-18 12:30N 37°48' W 122°24'2 4.7
2017-Nov-18 12:00N 37°46' W 122°22'2 4.7
2017-Nov-18 11:30N 37°48' W 122°24'0 0.0
2017-Nov-18 11:00N 37°48' W 122°24'3 5.2
2017-Nov-18 10:31N 37°48' W 122°20'3 5.2
2017-Nov-18 10:01N 37°48' W 122°24'0 0.0
2017-Nov-18 09:31N 37°48' W 122°24'0 0.0
2017-Nov-18 09:01N 37°48' W 122°24'0 0.0
2017-Nov-18 08:30N 37°48' W 122°24'0 0.0
2017-Nov-18 08:00N 37°48' W 122°24'0 0.0
2017-Nov-18 07:30N 37°48' W 122°24'0 0.0
2017-Nov-18 07:00N 37°48' W 122°24'0 0.0
2017-Nov-18 06:30N 37°48' W 122°24'0 0.0
2017-Nov-18 06:00N 37°48' W 122°24'2 4.1
2017-Nov-18 05:31N 37°49' W 122°26'813.5
2017-Nov-18 04:56N 37°47' W 122°35'921.3
2017-Nov-18 04:30N 37°49' W 122°24'3 5.0
2017-Nov-18 04:00N 37°47' W 122°21'1 1.7
2017-Nov-18 03:30N 37°47' W 122°22'1 2.7
2017-Nov-18 03:00N 37°48' W 122°24'0 0.4
2017-Nov-18 02:31N 37°48' W 122°24'0 0.0
2017-Nov-18 02:01N 37°48' W 122°24'0 0.0
2017-Nov-18 01:31N 37°48' W 122°24'3 6.7
2017-Nov-18 01:00N 37°48' W 122°20'2 4.7
2017-Nov-18 00:31N 37°46' W 122°22'3 5.0
2017-Nov-18 00:00N 37°48' W 122°24'0 0.1
2017-Nov-17 23:31N 37°48' W 122°24'0 0.1
2017-Nov-17 23:01N 37°48' W 122°24'0 0.0
2017-Nov-17 22:30N 37°48' W 122°24'0 0.0
2017-Nov-17 22:00N 37°48' W 122°24'0 0.0
2017-Nov-17 21:30N 37°48' W 122°24'0 0.1
2017-Nov-17 21:00N 37°48' W 122°24'1 1.8
2017-Nov-17 20:30N 37°48' W 122°23'1 1.7
2017-Nov-17 20:00N 37°48' W 122°24'0 0.0
2017-Nov-17 19:30N 37°48' W 122°24'0 0.0
2017-Nov-17 19:00N 37°48' W 122°24'0 0.0
2017-Nov-17 18:30N 37°48' W 122°24'0 0.0
2017-Nov-17 18:00N 37°48' W 122°24'3 6.0
2017-Nov-17 17:30N 37°46' W 122°21'3 6.0
2017-Nov-17 17:01N 37°48' W 122°24'0 0.0
2017-Nov-17 16:30N 37°48' W 122°24'0 0.0
2017-Nov-17 16:00N 37°48' W 122°24'0 0.0
2017-Nov-17 15:31N 37°48' W 122°24'1 2.4
2017-Nov-17 15:00N 37°49' W 122°25'1 2.4
2017-Nov-17 14:31N 37°48' W 122°24'3 6.5
2017-Nov-17 14:01N 37°51' W 122°26'3 6.5
2017-Nov-17 13:30N 37°48' W 122°24'0 0.0
2017-Nov-17 13:00N 37°48' W 122°24'0 0.0
2017-Nov-17 12:31N 37°48' W 122°24'0 0.0
2017-Nov-17 12:01N 37°48' W 122°24'0 0.0
2017-Nov-17 11:30N 37°48' W 122°24'0 0.0
2017-Nov-17 11:01N 37°48' W 122°24'0 0.0
2017-Nov-17 10:31N 37°48' W 122°24'0 0.0
2017-Nov-17 10:01N 37°48' W 122°24'0 0.0
2017-Nov-17 09:30N 37°48' W 122°24'0 0.0
2017-Nov-17 09:00N 37°48' W 122°24'2 3.2
2017-Nov-17 08:31N 37°47' W 122°22'2 3.2
2017-Nov-17 08:00N 37°48' W 122°24'0 0.0
2017-Nov-17 07:30N 37°48' W 122°24'0 0.0
2017-Nov-17 07:00N 37°48' W 122°24'5 9.2
2017-Nov-17 06:31N 37°45' W 122°20'5 9.0
2017-Nov-17 06:01N 37°48' W 122°23'0 0.5
2017-Nov-17 05:30N 37°48' W 122°24'1 2.9
2017-Nov-17 05:00N 37°48' W 122°22'1223.0
2017-Nov-17 04:30N 37°46' W 122°36'3 6.3
2017-Nov-17 04:00N 37°48' W 122°33'714.0
2017-Nov-17 03:30N 37°48' W 122°24'0 0.0
2017-Nov-17 03:00N 37°48' W 122°24'0 0.0
2017-Nov-17 02:30N 37°48' W 122°24'0 0.0
2017-Nov-17 02:00N 37°48' W 122°24'0 0.0
2017-Nov-17 01:30N 37°48' W 122°24'0 0.0
2017-Nov-17 01:00N 37°48' W 122°24'0 0.0
2017-Nov-17 00:30N 37°48' W 122°24'0 0.0
2017-Nov-17 00:00N 37°48' W 122°24'714.6
2017-Nov-16 23:31N 37°47' W 122°33'2 3.7
2017-Nov-16 22:54N 37°47' W 122°36'615.3
2017-Nov-16 22:31N 37°49' W 122°29'612.4
2017-Nov-16 22:01N 37°48' W 122°21'2 3.5
2017-Nov-16 21:30N 37°48' W 122°23'1 1.5
2017-Nov-16 21:00N 37°48' W 122°24'0 0.0
2017-Nov-16 20:30N 37°48' W 122°24'0 0.0
2017-Nov-16 20:00N 37°48' W 122°24'4 7.2
2017-Nov-16 19:31N 37°45' W 122°21'3 6.1
2017-Nov-16 19:00N 37°48' W 122°20'3 5.7
2017-Nov-16 18:30N 37°48' W 122°24'0 0.0
2017-Nov-16 18:00N 37°48' W 122°24'0 0.0
2017-Nov-16 17:30N 37°48' W 122°24'1 2.5
2017-Nov-16 17:00N 37°49' W 122°25'1 2.1
2017-Nov-16 16:31N 37°49' W 122°24'4 7.7
2017-Nov-16 16:01N 37°49' W 122°29'1 1.6
2017-Nov-16 15:31N 37°49' W 122°30'816.1
2017-Nov-16 15:00N 37°48' W 122°20'0 0.8
2017-Nov-16 14:30N 37°48' W 122°19'4 7.3
2017-Nov-16 14:00N 37°48' W 122°24'0 0.0
2017-Nov-16 13:30N 37°48' W 122°24'4 8.0
2017-Nov-16 13:01N 37°48' W 122°19'4 8.0
2017-Nov-16 12:30N 37°48' W 122°24'0 0.0
2017-Nov-16 12:00N 37°48' W 122°24'0 0.0
2017-Nov-16 11:30N 37°48' W 122°24'0 0.0
2017-Nov-16 11:00N 37°48' W 122°24'1 1.3
2017-Nov-16 10:30N 37°49' W 122°24'918.1
2017-Nov-16 10:01N 37°47' W 122°35'0 0.5
2017-Nov-16 09:26N 37°47' W 122°35'716.0
2017-Nov-16 09:01N 37°49' W 122°27'3 5.1
2017-Nov-16 08:31N 37°48' W 122°24'3 6.9
2017-Nov-16 08:01N 37°48' W 122°19'612.1
2017-Nov-16 07:31N 37°52' W 122°25'3 6.0
2017-Nov-16 07:00N 37°49' W 122°24'1 2.0
2017-Nov-16 06:30N 37°48' W 122°24'0 0.0
2017-Nov-16 06:00N 37°48' W 122°24'0 0.0
2017-Nov-16 05:30N 37°48' W 122°24'0 0.0
2017-Nov-16 05:00N 37°48' W 122°24'3 5.8
2017-Nov-16 04:31N 37°45' W 122°23'3 5.8
2017-Nov-16 04:00N 37°48' W 122°24'4 8.8
2017-Nov-16 03:31N 37°48' W 122°18'2 3.8
2017-Nov-16 03:00N 37°49' W 122°20'0 1.0
2017-Nov-16 02:31N 37°48' W 122°20'3 5.5
2017-Nov-16 02:00N 37°48' W 122°24'0 0.0
2017-Nov-16 01:30N 37°48' W 122°24'0 0.0
2017-Nov-16 01:00N 37°48' W 122°24'3 6.6
2017-Nov-16 00:30N 37°49' W 122°20'3 5.0
2017-Nov-16 00:01N 37°46' W 122°20'3 6.4
2017-Nov-15 23:30N 37°48' W 122°24'714.8
2017-Nov-15 23:00N 37°47' W 122°33'4 7.8
2017-Nov-15 22:30N 37°46' W 122°38'1123.3
2017-Nov-15 22:00N 37°48' W 122°24'0 0.1
2017-Nov-15 21:30N 37°48' W 122°24'3 5.5
2017-Nov-15 21:01N 37°49' W 122°27'3 5.4
2017-Nov-15 20:30N 37°48' W 122°24'2 3.4
2017-Nov-15 20:01N 37°49' W 122°25'2 3.5
2017-Nov-15 19:30N 37°48' W 122°24'3 6.0
2017-Nov-15 19:01N 37°46' W 122°21'0 0.7
2017-Nov-15 18:30N 37°46' W 122°21'2 4.5
2017-Nov-15 18:01N 37°48' W 122°22'2 3.0
2017-Nov-15 17:30N 37°48' W 122°24'0 0.0
2017-Nov-15 17:00N 37°48' W 122°24'1 1.4
2017-Nov-15 16:31N 37°49' W 122°24'1 2.0
2017-Nov-15 16:01N 37°49' W 122°25'5 9.1
2017-Nov-15 15:31N 37°46' W 122°21'2 4.4
2017-Nov-15 15:01N 37°48' W 122°21'2 4.8
2017-Nov-15 14:30N 37°48' W 122°24'4 8.4
2017-Nov-15 14:00N 37°48' W 122°18'2 4.0
2017-Nov-15 13:31N 37°47' W 122°21'5 9.1
2017-Nov-15 13:00N 37°49' W 122°26'5 9.8
2017-Nov-15 12:31N 37°46' W 122°21'3 5.1
2017-Nov-15 12:01N 37°48' W 122°21'2 3.6
2017-Nov-15 11:30N 37°48' W 122°24'0 0.0
2017-Nov-15 11:00N 37°48' W 122°24'0 0.0
2017-Nov-15 10:30N 37°48' W 122°24'0 0.0
2017-Nov-15 10:00N 37°48' W 122°24'0 0.0
2017-Nov-15 09:30N 37°48' W 122°24'0 0.0
2017-Nov-15 09:00N 37°48' W 122°24'1 2.7
2017-Nov-15 08:31N 37°48' W 122°22'1 2.7
2017-Nov-15 08:00N 37°48' W 122°24'0 0.0
2017-Nov-15 07:30N 37°48' W 122°24'0 0.0
2017-Nov-15 07:00N 37°48' W 122°24'3 6.2
2017-Nov-15 06:31N 37°46' W 122°21'816.5
2017-Nov-15 06:01N 37°48' W 122°31'1 2.3
2017-Nov-15 05:30N 37°47' W 122°33'1019.7
2017-Nov-15 05:01N 37°48' W 122°21'3 5.2
2017-Nov-15 04:30N 37°45' W 122°21'3 6.0
2017-Nov-15 04:00N 37°48' W 122°22'3 6.7
2017-Nov-15 03:30N 37°47' W 122°18'4 8.9
2017-Nov-15 03:00N 37°48' W 122°24'0 0.0
2017-Nov-15 02:30N 37°48' W 122°24'0 0.0
2017-Nov-15 02:00N 37°48' W 122°24'2 4.4
2017-Nov-15 01:30N 37°48' W 122°21'1 2.0
2017-Nov-15 01:00N 37°48' W 122°22'3 5.1
2017-Nov-15 00:30N 37°48' W 122°19'4 7.1
2017-Nov-15 00:00N 37°48' W 122°23'1 1.1
2017-Nov-14 23:30N 37°48' W 122°24'0 0.0
2017-Nov-14 23:00N 37°48' W 122°24'2 4.6
2017-Nov-14 22:30N 37°48' W 122°21'3 5.5
2017-Nov-14 22:00N 37°49' W 122°24'1 1.8
2017-Nov-14 21:30N 37°48' W 122°24'0 0.0
2017-Nov-14 21:00N 37°48' W 122°24'815.1
2017-Nov-14 20:31N 37°47' W 122°33'0 0.6
2017-Nov-14 19:55N 37°47' W 122°34'819.6
2017-Nov-14 19:30N 37°48' W 122°24'1 2.5
2017-Nov-14 19:01N 37°48' W 122°22'1 2.4
2017-Nov-14 18:30N 37°48' W 122°24'0 0.0
2017-Nov-14 18:00N 37°48' W 122°24'0 0.0
2017-Nov-14 17:30N 37°48' W 122°24'0 0.5
2017-Nov-14 17:00N 37°48' W 122°24'1 2.7
2017-Nov-14 16:30N 37°49' W 122°25'3 5.1
2017-Nov-14 16:01N 37°48' W 122°22'2 4.9
2017-Nov-14 15:31N 37°46' W 122°21'1 1.7
2017-Nov-14 15:00N 37°47' W 122°21'2 4.9
2017-Nov-14 14:30N 37°48' W 122°24'0 0.0
2017-Nov-14 14:00N 37°48' W 122°24'0 0.0
2017-Nov-14 13:30N 37°48' W 122°24'2 4.0
2017-Nov-14 13:01N 37°48' W 122°21'5 9.3
2017-Nov-14 12:30N 37°49' W 122°27'510.3
2017-Nov-14 12:00N 37°48' W 122°21'1121.5
2017-Nov-14 11:30N 37°47' W 122°34'0 0.7
2017-Nov-14 10:51N 37°47' W 122°33'721.9
2017-Nov-14 10:31N 37°49' W 122°24'1 2.1
2017-Nov-14 10:00N 37°48' W 122°24'0 0.0
2017-Nov-14 09:30N 37°48' W 122°24'0 0.0
2017-Nov-14 09:00N 37°48' W 122°24'0 0.0
2017-Nov-14 08:30N 37°48' W 122°24'0 0.0
2017-Nov-14 08:00N 37°48' W 122°24'0 0.0
2017-Nov-14 07:30N 37°48' W 122°24'0 0.0
2017-Nov-14 07:00N 37°48' W 122°24'0 0.0
2017-Nov-14 06:30N 37°48' W 122°24'0 0.0
2017-Nov-14 06:00N 37°48' W 122°24'3 5.5
2017-Nov-14 05:31N 37°49' W 122°27'3 5.4
2017-Nov-14 05:00N 37°48' W 122°24'4 7.6
2017-Nov-14 04:31N 37°48' W 122°19'0 0.8
2017-Nov-14 04:00N 37°48' W 122°18'1 1.7
2017-Nov-14 03:30N 37°48' W 122°20'3 5.1
2017-Nov-14 03:01N 37°48' W 122°23'1 1.6
2017-Nov-14 02:30N 37°48' W 122°24'0 0.0
2017-Nov-14 02:00N 37°48' W 122°24'0 0.0
2017-Nov-14 01:30N 37°48' W 122°24'0 0.0
2017-Nov-14 01:00N 37°48' W 122°24'2 3.6
2017-Nov-14 00:30N 37°48' W 122°21'1 2.1
2017-Nov-14 00:00N 37°49' W 122°20'713.9
2017-Nov-13 23:31N 37°49' W 122°29'3 5.1
2017-Nov-13 22:56N 37°47' W 122°32'716.2
2017-Nov-13 22:31N 37°48' W 122°24'1 1.9
2017-Nov-13 22:01N 37°48' W 122°23'1 0.1
2017-Nov-13 02:01N 37°48' W 122°21'2 4.1
2017-Nov-13 01:30N 37°48' W 122°24'3 5.6
2017-Nov-13 01:00N 37°46' W 122°21'2 4.3
2017-Nov-13 00:31N 37°48' W 122°20'3 5.3
2017-Nov-13 00:00N 37°48' W 122°24'0 0.0
2017-Nov-12 23:30N 37°48' W 122°24'0 0.0
2017-Nov-12 23:00N 37°48' W 122°24'0 0.0
2017-Nov-12 22:30N 37°48' W 122°24'0 0.0
2017-Nov-12 22:00N 37°48' W 122°24'611.7
2017-Nov-12 21:31N 37°48' W 122°31'2 3.6
2017-Nov-12 20:55N 37°47' W 122°34'818.7
2017-Nov-12 20:30N 37°48' W 122°24'3 6.6
2017-Nov-12 20:01N 37°46' W 122°21'3 6.5
2017-Nov-12 19:31N 37°48' W 122°24'3 5.7
2017-Nov-12 19:01N 37°49' W 122°20'2 4.1
2017-Nov-12 18:31N 37°47' W 122°22'1 2.8
2017-Nov-12 18:00N 37°48' W 122°24'0 0.0
2017-Nov-12 17:30N 37°48' W 122°24'0 0.0
2017-Nov-12 17:00N 37°48' W 122°24'0 0.0
2017-Nov-12 16:31N 37°48' W 122°24'0 0.0
2017-Nov-12 16:00N 37°48' W 122°24'3 5.7
2017-Nov-12 15:31N 37°49' W 122°20'511.0
2017-Nov-12 15:00N 37°50' W 122°27'3 6.0
2017-Nov-12 14:30N 37°48' W 122°24'0 0.0
2017-Nov-12 14:01N 37°48' W 122°24'0 0.0
2017-Nov-12 13:30N 37°48' W 122°24'0 0.0
2017-Nov-12 13:01N 37°48' W 122°24'0 0.0
2017-Nov-12 12:30N 37°48' W 122°24'0 0.0
2017-Nov-12 12:01N 37°48' W 122°24'2 4.0
2017-Nov-12 11:31N 37°47' W 122°21'1 2.7
2017-Nov-12 11:00N 37°48' W 122°23'1 1.5
2017-Nov-12 10:30N 37°48' W 122°24'612.9
2017-Nov-12 10:00N 37°48' W 122°32'2 4.2
2017-Nov-12 09:29N 37°47' W 122°34'817.8
2017-Nov-12 09:00N 37°48' W 122°24'0 0.0
2017-Nov-12 08:30N 37°48' W 122°24'2 4.4
2017-Nov-12 08:00N 37°47' W 122°21'2 4.4
2017-Nov-12 07:30N 37°48' W 122°24'0 0.0
2017-Nov-12 07:00N 37°48' W 122°24'0 0.0
2017-Nov-12 06:30N 37°48' W 122°24'0 0.0
2017-Nov-12 06:00N 37°48' W 122°24'0 0.0
2017-Nov-12 05:30N 37°48' W 122°24'0 0.0
2017-Nov-12 05:00N 37°48' W 122°24'0 0.0
2017-Nov-12 04:30N 37°48' W 122°24'0 0.0
2017-Nov-12 04:00N 37°48' W 122°24'0 0.0
2017-Nov-12 03:30N 37°48' W 122°24'0 0.0
2017-Nov-12 03:00N 37°48' W 122°24'0 0.0
2017-Nov-12 02:30N 37°48' W 122°24'2 3.9
2017-Nov-12 02:01N 37°47' W 122°21'2 3.8
2017-Nov-12 01:30N 37°48' W 122°24'0 0.5
2017-Nov-12 01:00N 37°48' W 122°23'3 6.3
2017-Nov-12 00:31N 37°49' W 122°27'5 9.3
2017-Nov-11 23:55N 37°47' W 122°34'820.5
2017-Nov-11 23:31N 37°49' W 122°23'2 4.9
2017-Nov-11 23:00N 37°49' W 122°20'5 9.7
2017-Nov-11 22:31N 37°49' W 122°26'2 4.4
2017-Nov-11 22:01N 37°48' W 122°24'0 0.0
2017-Nov-11 21:31N 37°48' W 122°24'0 0.0
2017-Nov-11 21:00N 37°48' W 122°24'2 4.0
2017-Nov-11 20:30N 37°47' W 122°22'3 6.4
2017-Nov-11 20:01N 37°49' W 122°25'0 0.6
2017-Nov-11 19:31N 37°49' W 122°25'3 6.8
2017-Nov-11 19:01N 37°49' W 122°30'714.4
2017-Nov-11 18:30N 37°46' W 122°38'1224.7
2017-Nov-11 18:01N 37°49' W 122°23'1 1.5
2017-Nov-11 17:30N 37°48' W 122°24'0 0.0
2017-Nov-11 17:00N 37°48' W 122°24'0 0.0
2017-Nov-11 16:30N 37°48' W 122°24'2 4.8
2017-Nov-11 16:01N 37°48' W 122°21'1 3.0
2017-Nov-11 15:31N 37°48' W 122°23'2 3.0
2017-Nov-11 15:00N 37°48' W 122°21'2 4.9
2017-Nov-11 14:31N 37°48' W 122°24'0 0.0
2017-Nov-11 14:00N 37°48' W 122°24'0 0.0
2017-Nov-11 13:30N 37°48' W 122°24'1 1.1
2017-Nov-11 13:01N 37°48' W 122°23'1 1.1
2017-Nov-11 12:30N 37°48' W 122°24'0 0.0
2017-Nov-11 12:00N 37°48' W 122°24'510.2
2017-Nov-11 11:31N 37°48' W 122°30'5 9.0
2017-Nov-11 10:58N 37°47' W 122°36'920.7
2017-Nov-11 10:31N 37°49' W 122°25'1 2.0
2017-Nov-11 10:00N 37°48' W 122°24'0 0.0
2017-Nov-11 09:30N 37°48' W 122°24'0 0.0
2017-Nov-11 09:00N 37°48' W 122°24'2 4.7
2017-Nov-11 08:31N 37°47' W 122°21'1 2.5
2017-Nov-11 08:01N 37°48' W 122°20'3 5.5
2017-Nov-11 07:30N 37°48' W 122°24'0 0.0
2017-Nov-11 07:00N 37°48' W 122°24'0 0.0
2017-Nov-11 06:30N 37°48' W 122°24'0 0.0
2017-Nov-11 06:00N 37°48' W 122°24'0 0.0
2017-Nov-11 05:30N 37°48' W 122°24'0 0.0
2017-Nov-11 05:00N 37°48' W 122°24'3 5.6
2017-Nov-11 04:30N 37°49' W 122°27'5 7.7
2017-Nov-11 03:47N 37°47' W 122°34'619.7
2017-Nov-11 03:31N 37°49' W 122°27'3 5.5
2017-Nov-11 03:00N 37°48' W 122°24'0 0.0
2017-Nov-11 02:30N 37°48' W 122°24'3 5.7
2017-Nov-11 02:00N 37°46' W 122°21'2 3.5
2017-Nov-11 01:30N 37°48' W 122°21'2 4.1
2017-Nov-11 01:01N 37°46' W 122°21'3 5.5
2017-Nov-11 00:30N 37°48' W 122°24'0 0.0
2017-Nov-11 00:00N 37°48' W 122°24'0 0.0
2017-Nov-10 23:30N 37°48' W 122°24'4 8.0
2017-Nov-10 23:00N 37°49' W 122°29'4 8.0
2017-Nov-10 22:30N 37°48' W 122°24'0 0.0
2017-Nov-10 22:00N 37°48' W 122°24'0 0.0
2017-Nov-10 21:30N 37°48' W 122°24'0 0.0
2017-Nov-10 21:00N 37°48' W 122°24'0 0.0
2017-Nov-10 20:30N 37°48' W 122°24'0 0.0
2017-Nov-10 20:00N 37°48' W 122°24'0 0.0
2017-Nov-10 19:30N 37°48' W 122°24'0 0.0
2017-Nov-10 19:00N 37°48' W 122°24'510.3
2017-Nov-10 18:30N 37°44' W 122°20'510.2
2017-Nov-10 18:00N 37°48' W 122°24'0 0.0
2017-Nov-10 17:30N 37°48' W 122°24'0 0.0
2017-Nov-10 17:00N 37°48' W 122°24'2 3.5
2017-Nov-10 16:30N 37°48' W 122°22'510.6
2017-Nov-10 16:01N 37°49' W 122°28'2 4.8
2017-Nov-10 15:31N 37°49' W 122°25'4 8.8
2017-Nov-10 15:01N 37°48' W 122°20'3 6.4
2017-Nov-10 14:30N 37°48' W 122°24'0 0.0
2017-Nov-10 14:00N 37°48' W 122°24'0 0.0
2017-Nov-10 13:30N 37°48' W 122°24'2 4.3
2017-Nov-10 13:00N 37°48' W 122°21'510.7
2017-Nov-10 12:30N 37°49' W 122°28'612.4
2017-Nov-10 12:01N 37°49' W 122°20'4 8.0
2017-Nov-10 11:31N 37°49' W 122°25'810.7
2017-Nov-10 10:48N 37°47' W 122°34'517.7
2017-Nov-10 10:30N 37°49' W 122°28'4 7.2
2017-Nov-10 10:00N 37°48' W 122°24'0 0.0
2017-Nov-10 09:30N 37°48' W 122°24'0 0.0
2017-Nov-10 09:00N 37°48' W 122°24'0 0.0
2017-Nov-10 08:30N 37°48' W 122°24'0 0.0
2017-Nov-10 08:00N 37°48' W 122°24'0 0.0
2017-Nov-10 07:30N 37°48' W 122°24'2 5.0
2017-Nov-10 07:00N 37°48' W 122°21'2 4.9
2017-Nov-10 06:30N 37°48' W 122°24'2 4.6
2017-Nov-10 06:00N 37°47' W 122°21'2 4.6
2017-Nov-10 05:30N 37°48' W 122°24'0 0.0
2017-Nov-10 05:00N 37°48' W 122°24'0 0.0
2017-Nov-10 04:30N 37°48' W 122°24'3 6.9
2017-Nov-10 04:00N 37°46' W 122°21'3 6.9
2017-Nov-10 03:31N 37°48' W 122°24'0 0.0
2017-Nov-10 03:00N 37°48' W 122°24'0 0.0
2017-Nov-10 02:31N 37°48' W 122°24'0 0.0
2017-Nov-10 02:01N 37°48' W 122°24'0 0.0
2017-Nov-10 01:31N 37°48' W 122°24'1 2.7
2017-Nov-10 01:01N 37°48' W 122°22'  
Track history (hours):
 
Tides and Currents Weather Stations Pressure Air Temp Water Temp Dewpoint Dewpoint Depression Visibility Wind Speed Wind Dir Waves Ship Positions

P/v Golden Gate

Owner: San Francisco Bar Pilots Benevolent and Protective, San Francisco, CA. More information available from US FCC via Universal Licensing System and Coast Guard Vessel Documentation Center.

Last reported at 2017-Nov-20 00:31 UTC. Time now 2017-Nov-21 04:51 UTC.
Position N 37°48' W 122°23'.

Length 21 m.

Type: Pilot. MMSI: 367370010.

Date/timePositionNaut miles runAvg speedWind from/ knotsBaromVisibWave heightAir tempDewpointWater temp
2017-Nov-20 00:31N 37°48' W 122°23'1 1.4
2017-Nov-20 00:00N 37°48' W 122°24'0 0.0
2017-Nov-19 23:30N 37°48' W 122°24'0 0.0
2017-Nov-19 23:00N 37°48' W 122°24'0 0.0
2017-Nov-19 22:30N 37°48' W 122°24'1 2.8
2017-Nov-19 22:01N 37°47' W 122°23'2 3.7
2017-Nov-19 21:31N 37°48' W 122°21'3 4.9
2017-Nov-19 20:59N 37°48' W 122°24'0 0.0
2017-Nov-19 20:30N 37°48' W 122°24'0 0.0
2017-Nov-19 20:00N 37°48' W 122°24'3 5.4
2017-Nov-19 19:30N 37°46' W 122°21'3 5.4
2017-Nov-19 19:00N 37°48' W 122°24'0 0.0
2017-Nov-19 18:30N 37°48' W 122°24'0 0.0
2017-Nov-19 18:00N 37°48' W 122°24'3 5.1
2017-Nov-19 17:31N 37°48' W 122°21'4 8.9
2017-Nov-19 17:00N 37°50' W 122°26'2 4.7
2017-Nov-19 16:30N 37°48' W 122°24'4 7.2
2017-Nov-19 16:00N 37°48' W 122°19'3 5.6
2017-Nov-19 15:31N 37°45' W 122°21'3 5.6
2017-Nov-19 15:00N 37°48' W 122°20'3 6.7
2017-Nov-19 14:30N 37°48' W 122°24'0 0.0
2017-Nov-19 14:00N 37°48' W 122°24'0 0.0
2017-Nov-19 13:30N 37°48' W 122°24'1 2.4
2017-Nov-19 13:00N 37°49' W 122°25'917.1
2017-Nov-19 12:30N 37°47' W 122°35'2 4.3
2017-Nov-19 11:59N 37°47' W 122°33'1020.2
2017-Nov-19 11:31N 37°48' W 122°20'3 5.4
2017-Nov-19 11:00N 37°48' W 122°24'0 0.0
2017-Nov-19 10:30N 37°48' W 122°24'0 0.0
2017-Nov-19 10:00N 37°48' W 122°24'0 0.0
2017-Nov-19 09:30N 37°48' W 122°24'0 0.0
2017-Nov-19 09:01N 37°48' W 122°24'0 0.0
2017-Nov-19 08:31N 37°48' W 122°24'0 0.0
2017-Nov-19 08:01N 37°48' W 122°24'0 0.0
2017-Nov-19 07:31N 37°48' W 122°24'917.2
2017-Nov-19 07:01N 37°47' W 122°35'713.3
2017-Nov-19 06:30N 37°49' W 122°27'2 4.7
2017-Nov-19 06:00N 37°48' W 122°24'3 6.3
2017-Nov-19 05:31N 37°48' W 122°20'611.2
2017-Nov-19 05:00N 37°49' W 122°27'3 5.1
2017-Nov-19 04:30N 37°48' W 122°24'0 0.2
2017-Nov-19 04:00N 37°48' W 122°24'0 0.0
2017-Nov-19 03:30N 37°48' W 122°24'1 1.2
2017-Nov-19 03:01N 37°48' W 122°23'3 6.2
2017-Nov-19 02:30N 37°48' W 122°19'3 5.1
2017-Nov-19 02:01N 37°46' W 122°21'714.4
2017-Nov-19 01:30N 37°48' W 122°30'714.5
2017-Nov-19 01:00N 37°45' W 122°38'1122.1
2017-Nov-19 00:30N 37°49' W 122°25'1 2.4
2017-Nov-19 00:00N 37°48' W 122°24'4 8.3
2017-Nov-18 23:31N 37°45' W 122°20'1 2.6
2017-Nov-18 23:01N 37°46' W 122°21'3 5.8
2017-Nov-18 22:30N 37°48' W 122°24'0 0.0
2017-Nov-18 22:00N 37°48' W 122°24'0 0.0
2017-Nov-18 21:30N 37°48' W 122°24'0 0.0
2017-Nov-18 21:01N 37°48' W 122°24'3 6.9
2017-Nov-18 20:31N 37°46' W 122°21'3 6.9
2017-Nov-18 20:01N 37°48' W 122°24'0 0.0
2017-Nov-18 19:31N 37°48' W 122°24'1 2.4
2017-Nov-18 19:00N 37°49' W 122°25'4 7.9
2017-Nov-18 18:31N 37°46' W 122°21'3 5.5
2017-Nov-18 18:00N 37°48' W 122°24'4 7.3
2017-Nov-18 17:31N 37°49' W 122°28'4 7.3
2017-Nov-18 17:00N 37°48' W 122°24'2 4.1
2017-Nov-18 16:30N 37°48' W 122°21'1 2.2
2017-Nov-18 16:00N 37°47' W 122°22'1 2.9
2017-Nov-18 15:30N 37°48' W 122°24'4 8.0
2017-Nov-18 15:01N 37°48' W 122°19'2 3.3
2017-Nov-18 14:31N 37°48' W 122°21'2 5.0
2017-Nov-18 14:00N 37°48' W 122°24'0 0.0
2017-Nov-18 13:30N 37°48' W 122°24'0 0.0
2017-Nov-18 13:00N 37°48' W 122°24'0 0.0
2017-Nov-18 12:30N 37°48' W 122°24'2 4.7
2017-Nov-18 12:00N 37°46' W 122°22'2 4.7
2017-Nov-18 11:30N 37°48' W 122°24'0 0.0
2017-Nov-18 11:00N 37°48' W 122°24'3 5.2
2017-Nov-18 10:31N 37°48' W 122°20'3 5.2
2017-Nov-18 10:01N 37°48' W 122°24'0 0.0
2017-Nov-18 09:31N 37°48' W 122°24'0 0.0
2017-Nov-18 09:01N 37°48' W 122°24'0 0.0
2017-Nov-18 08:30N 37°48' W 122°24'0 0.0
2017-Nov-18 08:00N 37°48' W 122°24'0 0.0
2017-Nov-18 07:30N 37°48' W 122°24'0 0.0
2017-Nov-18 07:00N 37°48' W 122°24'0 0.0
2017-Nov-18 06:30N 37°48' W 122°24'0 0.0
2017-Nov-18 06:00N 37°48' W 122°24'2 4.1
2017-Nov-18 05:31N 37°49' W 122°26'813.5
2017-Nov-18 04:56N 37°47' W 122°35'921.3
2017-Nov-18 04:30N 37°49' W 122°24'3 5.0
2017-Nov-18 04:00N 37°47' W 122°21'1 1.7
2017-Nov-18 03:30N 37°47' W 122°22'1 2.7
2017-Nov-18 03:00N 37°48' W 122°24'0 0.4
2017-Nov-18 02:31N 37°48' W 122°24'0 0.0
2017-Nov-18 02:01N 37°48' W 122°24'0 0.0
2017-Nov-18 01:31N 37°48' W 122°24'3 6.7
2017-Nov-18 01:00N 37°48' W 122°20'2 4.7
2017-Nov-18 00:31N 37°46' W 122°22'3 5.0
2017-Nov-18 00:00N 37°48' W 122°24'0 0.1
2017-Nov-17 23:31N 37°48' W 122°24'0 0.1
2017-Nov-17 23:01N 37°48' W 122°24'0 0.0
2017-Nov-17 22:30N 37°48' W 122°24'0 0.0
2017-Nov-17 22:00N 37°48' W 122°24'0 0.0
2017-Nov-17 21:30N 37°48' W 122°24'0 0.1
2017-Nov-17 21:00N 37°48' W 122°24'1 1.8
2017-Nov-17 20:30N 37°48' W 122°23'1 1.7
2017-Nov-17 20:00N 37°48' W 122°24'0 0.0
2017-Nov-17 19:30N 37°48' W 122°24'0 0.0
2017-Nov-17 19:00N 37°48' W 122°24'0 0.0
2017-Nov-17 18:30N 37°48' W 122°24'0 0.0
2017-Nov-17 18:00N 37°48' W 122°24'3 6.0
2017-Nov-17 17:30N 37°46' W 122°21'3 6.0
2017-Nov-17 17:01N 37°48' W 122°24'0 0.0
2017-Nov-17 16:30N 37°48' W 122°24'0 0.0
2017-Nov-17 16:00N 37°48' W 122°24'0 0.0
2017-Nov-17 15:31N 37°48' W 122°24'1 2.4
2017-Nov-17 15:00N 37°49' W 122°25'1 2.4
2017-Nov-17 14:31N 37°48' W 122°24'3 6.5
2017-Nov-17 14:01N 37°51' W 122°26'3 6.5
2017-Nov-17 13:30N 37°48' W 122°24'0 0.0
2017-Nov-17 13:00N 37°48' W 122°24'0 0.0
2017-Nov-17 12:31N 37°48' W 122°24'0 0.0
2017-Nov-17 12:01N 37°48' W 122°24'0 0.0
2017-Nov-17 11:30N 37°48' W 122°24'0 0.0
2017-Nov-17 11:01N 37°48' W 122°24'0 0.0
2017-Nov-17 10:31N 37°48' W 122°24'0 0.0
2017-Nov-17 10:01N 37°48' W 122°24'0 0.0
2017-Nov-17 09:30N 37°48' W 122°24'0 0.0
2017-Nov-17 09:00N 37°48' W 122°24'2 3.2
2017-Nov-17 08:31N 37°47' W 122°22'2 3.2
2017-Nov-17 08:00N 37°48' W 122°24'0 0.0
2017-Nov-17 07:30N 37°48' W 122°24'0 0.0
2017-Nov-17 07:00N 37°48' W 122°24'5 9.2
2017-Nov-17 06:31N 37°45' W 122°20'5 9.0
2017-Nov-17 06:01N 37°48' W 122°23'0 0.5
2017-Nov-17 05:30N 37°48' W 122°24'1 2.9
2017-Nov-17 05:00N 37°48' W 122°22'1223.0
2017-Nov-17 04:30N 37°46' W 122°36'3 6.3
2017-Nov-17 04:00N 37°48' W 122°33'714.0
2017-Nov-17 03:30N 37°48' W 122°24'0 0.0
2017-Nov-17 03:00N 37°48' W 122°24'0 0.0
2017-Nov-17 02:30N 37°48' W 122°24'0 0.0
2017-Nov-17 02:00N 37°48' W 122°24'0 0.0
2017-Nov-17 01:30N 37°48' W 122°24'0 0.0
2017-Nov-17 01:00N 37°48' W 122°24'0 0.0
2017-Nov-17 00:30N 37°48' W 122°24'0 0.0
2017-Nov-17 00:00N 37°48' W 122°24'714.6
2017-Nov-16 23:31N 37°47' W 122°33'2 3.7
2017-Nov-16 22:54N 37°47' W 122°36'615.3
2017-Nov-16 22:31N 37°49' W 122°29'612.4
2017-Nov-16 22:01N 37°48' W 122°21'2 3.5
2017-Nov-16 21:30N 37°48' W 122°23'1 1.5
2017-Nov-16 21:00N 37°48' W 122°24'0 0.0
2017-Nov-16 20:30N 37°48' W 122°24'0 0.0
2017-Nov-16 20:00N 37°48' W 122°24'4 7.2
2017-Nov-16 19:31N 37°45' W 122°21'3 6.1
2017-Nov-16 19:00N 37°48' W 122°20'3 5.7
2017-Nov-16 18:30N 37°48' W 122°24'0 0.0
2017-Nov-16 18:00N 37°48' W 122°24'0 0.0
2017-Nov-16 17:30N 37°48' W 122°24'1 2.5
2017-Nov-16 17:00N 37°49' W 122°25'1 2.1
2017-Nov-16 16:31N 37°49' W 122°24'4 7.7
2017-Nov-16 16:01N 37°49' W 122°29'1 1.6
2017-Nov-16 15:31N 37°49' W 122°30'816.1
2017-Nov-16 15:00N 37°48' W 122°20'0 0.8
2017-Nov-16 14:30N 37°48' W 122°19'4 7.3
2017-Nov-16 14:00N 37°48' W 122°24'0 0.0
2017-Nov-16 13:30N 37°48' W 122°24'4 8.0
2017-Nov-16 13:01N 37°48' W 122°19'4 8.0
2017-Nov-16 12:30N 37°48' W 122°24'0 0.0
2017-Nov-16 12:00N 37°48' W 122°24'0 0.0
2017-Nov-16 11:30N 37°48' W 122°24'0 0.0
2017-Nov-16 11:00N 37°48' W 122°24'1 1.3
2017-Nov-16 10:30N 37°49' W 122°24'918.1
2017-Nov-16 10:01N 37°47' W 122°35'0 0.5
2017-Nov-16 09:26N 37°47' W 122°35'716.0
2017-Nov-16 09:01N 37°49' W 122°27'3 5.1
2017-Nov-16 08:31N 37°48' W 122°24'3 6.9
2017-Nov-16 08:01N 37°48' W 122°19'612.1
2017-Nov-16 07:31N 37°52' W 122°25'3 6.0
2017-Nov-16 07:00N 37°49' W 122°24'1 2.0
2017-Nov-16 06:30N 37°48' W 122°24'0 0.0
2017-Nov-16 06:00N 37°48' W 122°24'0 0.0
2017-Nov-16 05:30N 37°48' W 122°24'0 0.0
2017-Nov-16 05:00N 37°48' W 122°24'3 5.8
2017-Nov-16 04:31N 37°45' W 122°23'3 5.8
2017-Nov-16 04:00N 37°48' W 122°24'4 8.8
2017-Nov-16 03:31N 37°48' W 122°18'2 3.8
2017-Nov-16 03:00N 37°49' W 122°20'0 1.0
2017-Nov-16 02:31N 37°48' W 122°20'3 5.5
2017-Nov-16 02:00N 37°48' W 122°24'0 0.0
2017-Nov-16 01:30N 37°48' W 122°24'0 0.0
2017-Nov-16 01:00N 37°48' W 122°24'3 6.6
2017-Nov-16 00:30N 37°49' W 122°20'3 5.0
2017-Nov-16 00:01N 37°46' W 122°20'3 6.4
2017-Nov-15 23:30N 37°48' W 122°24'714.8
2017-Nov-15 23:00N 37°47' W 122°33'4 7.8
2017-Nov-15 22:30N 37°46' W 122°38'1123.3
2017-Nov-15 22:00N 37°48' W 122°24'0 0.1
2017-Nov-15 21:30N 37°48' W 122°24'3 5.5
2017-Nov-15 21:01N 37°49' W 122°27'3 5.4
2017-Nov-15 20:30N 37°48' W 122°24'2 3.4
2017-Nov-15 20:01N 37°49' W 122°25'2 3.5
2017-Nov-15 19:30N 37°48' W 122°24'3 6.0
2017-Nov-15 19:01N 37°46' W 122°21'0 0.7
2017-Nov-15 18:30N 37°46' W 122°21'2 4.5
2017-Nov-15 18:01N 37°48' W 122°22'2 3.0
2017-Nov-15 17:30N 37°48' W 122°24'0 0.0
2017-Nov-15 17:00N 37°48' W 122°24'1 1.4
2017-Nov-15 16:31N 37°49' W 122°24'1 2.0
2017-Nov-15 16:01N 37°49' W 122°25'5 9.1
2017-Nov-15 15:31N 37°46' W 122°21'2 4.4
2017-Nov-15 15:01N 37°48' W 122°21'2 4.8
2017-Nov-15 14:30N 37°48' W 122°24'4 8.4
2017-Nov-15 14:00N 37°48' W 122°18'2 4.0
2017-Nov-15 13:31N 37°47' W 122°21'5 9.1
2017-Nov-15 13:00N 37°49' W 122°26'5 9.8
2017-Nov-15 12:31N 37°46' W 122°21'3 5.1
2017-Nov-15 12:01N 37°48' W 122°21'2 3.6
2017-Nov-15 11:30N 37°48' W 122°24'0 0.0
2017-Nov-15 11:00N 37°48' W 122°24'0 0.0
2017-Nov-15 10:30N 37°48' W 122°24'0 0.0
2017-Nov-15 10:00N 37°48' W 122°24'0 0.0
2017-Nov-15 09:30N 37°48' W 122°24'0 0.0
2017-Nov-15 09:00N 37°48' W 122°24'1 2.7
2017-Nov-15 08:31N 37°48' W 122°22'1 2.7
2017-Nov-15 08:00N 37°48' W 122°24'0 0.0
2017-Nov-15 07:30N 37°48' W 122°24'0 0.0
2017-Nov-15 07:00N 37°48' W 122°24'3 6.2
2017-Nov-15 06:31N 37°46' W 122°21'816.5
2017-Nov-15 06:01N 37°48' W 122°31'1 2.3
2017-Nov-15 05:30N 37°47' W 122°33'1019.7
2017-Nov-15 05:01N 37°48' W 122°21'3 5.2
2017-Nov-15 04:30N 37°45' W 122°21'3 6.0
2017-Nov-15 04:00N 37°48' W 122°22'3 6.7
2017-Nov-15 03:30N 37°47' W 122°18'4 8.9
2017-Nov-15 03:00N 37°48' W 122°24'0 0.0
2017-Nov-15 02:30N 37°48' W 122°24'0 0.0
2017-Nov-15 02:00N 37°48' W 122°24'2 4.4
2017-Nov-15 01:30N 37°48' W 122°21'1 2.0
2017-Nov-15 01:00N 37°48' W 122°22'3 5.1
2017-Nov-15 00:30N 37°48' W 122°19'4 7.1
2017-Nov-15 00:00N 37°48' W 122°23'1 1.1
2017-Nov-14 23:30N 37°48' W 122°24'0 0.0
2017-Nov-14 23:00N 37°48' W 122°24'2 4.6
2017-Nov-14 22:30N 37°48' W 122°21'3 5.5
2017-Nov-14 22:00N 37°49' W 122°24'1 1.8
2017-Nov-14 21:30N 37°48' W 122°24'0 0.0
2017-Nov-14 21:00N 37°48' W 122°24'815.1
2017-Nov-14 20:31N 37°47' W 122°33'0 0.6
2017-Nov-14 19:55N 37°47' W 122°34'819.6
2017-Nov-14 19:30N 37°48' W 122°24'1 2.5
2017-Nov-14 19:01N 37°48' W 122°22'1 2.4
2017-Nov-14 18:30N 37°48' W 122°24'0 0.0
2017-Nov-14 18:00N 37°48' W 122°24'0 0.0
2017-Nov-14 17:30N 37°48' W 122°24'0 0.5
2017-Nov-14 17:00N 37°48' W 122°24'1 2.7
2017-Nov-14 16:30N 37°49' W 122°25'3 5.1
2017-Nov-14 16:01N 37°48' W 122°22'2 4.9
2017-Nov-14 15:31N 37°46' W 122°21'1 1.7
2017-Nov-14 15:00N 37°47' W 122°21'2 4.9
2017-Nov-14 14:30N 37°48' W 122°24'0 0.0
2017-Nov-14 14:00N 37°48' W 122°24'0 0.0
2017-Nov-14 13:30N 37°48' W 122°24'2 4.0
2017-Nov-14 13:01N 37°48' W 122°21'5 9.3
2017-Nov-14 12:30N 37°49' W 122°27'510.3
2017-Nov-14 12:00N 37°48' W 122°21'1121.5
2017-Nov-14 11:30N 37°47' W 122°34'0 0.7
2017-Nov-14 10:51N 37°47' W 122°33'721.9
2017-Nov-14 10:31N 37°49' W 122°24'1 2.1
2017-Nov-14 10:00N 37°48' W 122°24'0 0.0
2017-Nov-14 09:30N 37°48' W 122°24'0 0.0
2017-Nov-14 09:00N 37°48' W 122°24'0 0.0
2017-Nov-14 08:30N 37°48' W 122°24'0 0.0
2017-Nov-14 08:00N 37°48' W 122°24'0 0.0
2017-Nov-14 07:30N 37°48' W 122°24'0 0.0
2017-Nov-14 07:00N 37°48' W 122°24'0 0.0
2017-Nov-14 06:30N 37°48' W 122°24'0 0.0
2017-Nov-14 06:00N 37°48' W 122°24'3 5.5
2017-Nov-14 05:31N 37°49' W 122°27'3 5.4
2017-Nov-14 05:00N 37°48' W 122°24'4 7.6
2017-Nov-14 04:31N 37°48' W 122°19'0 0.8
2017-Nov-14 04:00N 37°48' W 122°18'1 1.7
2017-Nov-14 03:30N 37°48' W 122°20'3 5.1
2017-Nov-14 03:01N 37°48' W 122°23'1 1.6
2017-Nov-14 02:30N 37°48' W 122°24'0 0.0
2017-Nov-14 02:00N 37°48' W 122°24'0 0.0
2017-Nov-14 01:30N 37°48' W 122°24'0 0.0
2017-Nov-14 01:00N 37°48' W 122°24'2 3.6
2017-Nov-14 00:30N 37°48' W 122°21'1 2.1
2017-Nov-14 00:00N 37°49' W 122°20'713.9
2017-Nov-13 23:31N 37°49' W 122°29'3 5.1
2017-Nov-13 22:56N 37°47' W 122°32'716.2
2017-Nov-13 22:31N 37°48' W 122°24'1 1.9
2017-Nov-13 22:01N 37°48' W 122°23'1 0.1
2017-Nov-13 02:01N 37°48' W 122°21'2 4.1
2017-Nov-13 01:30N 37°48' W 122°24'3 5.6
2017-Nov-13 01:00N 37°46' W 122°21'2 4.3
2017-Nov-13 00:31N 37°48' W 122°20'3 5.3
2017-Nov-13 00:00N 37°48' W 122°24'0 0.0
2017-Nov-12 23:30N 37°48' W 122°24'0 0.0
2017-Nov-12 23:00N 37°48' W 122°24'0 0.0
2017-Nov-12 22:30N 37°48' W 122°24'0 0.0
2017-Nov-12 22:00N 37°48' W 122°24'611.7
2017-Nov-12 21:31N 37°48' W 122°31'2 3.6
2017-Nov-12 20:55N 37°47' W 122°34'818.7
2017-Nov-12 20:30N 37°48' W 122°24'3 6.6
2017-Nov-12 20:01N 37°46' W 122°21'3 6.5
2017-Nov-12 19:31N 37°48' W 122°24'3 5.7
2017-Nov-12 19:01N 37°49' W 122°20'2 4.1
2017-Nov-12 18:31N 37°47' W 122°22'1 2.8
2017-Nov-12 18:00N 37°48' W 122°24'0 0.0
2017-Nov-12 17:30N 37°48' W 122°24'0 0.0
2017-Nov-12 17:00N 37°48' W 122°24'0 0.0
2017-Nov-12 16:31N 37°48' W 122°24'0 0.0
2017-Nov-12 16:00N 37°48' W 122°24'3 5.7
2017-Nov-12 15:31N 37°49' W 122°20'511.0
2017-Nov-12 15:00N 37°50' W 122°27'3 6.0
2017-Nov-12 14:30N 37°48' W 122°24'0 0.0
2017-Nov-12 14:01N 37°48' W 122°24'0 0.0
2017-Nov-12 13:30N 37°48' W 122°24'0 0.0
2017-Nov-12 13:01N 37°48' W 122°24'0 0.0
2017-Nov-12 12:30N 37°48' W 122°24'0 0.0
2017-Nov-12 12:01N 37°48' W 122°24'2 4.0
2017-Nov-12 11:31N 37°47' W 122°21'1 2.7
2017-Nov-12 11:00N 37°48' W 122°23'1 1.5
2017-Nov-12 10:30N 37°48' W 122°24'612.9
2017-Nov-12 10:00N 37°48' W 122°32'2 4.2
2017-Nov-12 09:29N 37°47' W 122°34'817.8
2017-Nov-12 09:00N 37°48' W 122°24'0 0.0
2017-Nov-12 08:30N 37°48' W 122°24'2 4.4
2017-Nov-12 08:00N 37°47' W 122°21'2 4.4
2017-Nov-12 07:30N 37°48' W 122°24'0 0.0
2017-Nov-12 07:00N 37°48' W 122°24'0 0.0
2017-Nov-12 06:30N 37°48' W 122°24'0 0.0
2017-Nov-12 06:00N 37°48' W 122°24'0 0.0
2017-Nov-12 05:30N 37°48' W 122°24'0 0.0
2017-Nov-12 05:00N 37°48' W 122°24'0 0.0
2017-Nov-12 04:30N 37°48' W 122°24'0 0.0
2017-Nov-12 04:00N 37°48' W 122°24'0 0.0
2017-Nov-12 03:30N 37°48' W 122°24'0 0.0
2017-Nov-12 03:00N 37°48' W 122°24'0 0.0
2017-Nov-12 02:30N 37°48' W 122°24'2 3.9
2017-Nov-12 02:01N 37°47' W 122°21'2 3.8
2017-Nov-12 01:30N 37°48' W 122°24'0 0.5
2017-Nov-12 01:00N 37°48' W 122°23'3 6.3
2017-Nov-12 00:31N 37°49' W 122°27'5 9.3
2017-Nov-11 23:55N 37°47' W 122°34'820.5
2017-Nov-11 23:31N 37°49' W 122°23'2 4.9
2017-Nov-11 23:00N 37°49' W 122°20'5 9.7
2017-Nov-11 22:31N 37°49' W 122°26'2 4.4
2017-Nov-11 22:01N 37°48' W 122°24'0 0.0
2017-Nov-11 21:31N 37°48' W 122°24'0 0.0
2017-Nov-11 21:00N 37°48' W 122°24'2 4.0
2017-Nov-11 20:30N 37°47' W 122°22'3 6.4
2017-Nov-11 20:01N 37°49' W 122°25'0 0.6
2017-Nov-11 19:31N 37°49' W 122°25'3 6.8
2017-Nov-11 19:01N 37°49' W 122°30'714.4
2017-Nov-11 18:30N 37°46' W 122°38'1224.7
2017-Nov-11 18:01N 37°49' W 122°23'1 1.5
2017-Nov-11 17:30N 37°48' W 122°24'0 0.0
2017-Nov-11 17:00N 37°48' W 122°24'0 0.0
2017-Nov-11 16:30N 37°48' W 122°24'2 4.8
2017-Nov-11 16:01N 37°48' W 122°21'1 3.0
2017-Nov-11 15:31N 37°48' W 122°23'2 3.0
2017-Nov-11 15:00N 37°48' W 122°21'2 4.9
2017-Nov-11 14:31N 37°48' W 122°24'0 0.0
2017-Nov-11 14:00N 37°48' W 122°24'0 0.0
2017-Nov-11 13:30N 37°48' W 122°24'1 1.1
2017-Nov-11 13:01N 37°48' W 122°23'1 1.1
2017-Nov-11 12:30N 37°48' W 122°24'0 0.0
2017-Nov-11 12:00N 37°48' W 122°24'510.2
2017-Nov-11 11:31N 37°48' W 122°30'5 9.0
2017-Nov-11 10:58N 37°47' W 122°36'920.7
2017-Nov-11 10:31N 37°49' W 122°25'1 2.0
2017-Nov-11 10:00N 37°48' W 122°24'0 0.0
2017-Nov-11 09:30N 37°48' W 122°24'0 0.0
2017-Nov-11 09:00N 37°48' W 122°24'2 4.7
2017-Nov-11 08:31N 37°47' W 122°21'1 2.5
2017-Nov-11 08:01N 37°48' W 122°20'3 5.5
2017-Nov-11 07:30N 37°48' W 122°24'0 0.0
2017-Nov-11 07:00N 37°48' W 122°24'0 0.0
2017-Nov-11 06:30N 37°48' W 122°24'0 0.0
2017-Nov-11 06:00N 37°48' W 122°24'0 0.0
2017-Nov-11 05:30N 37°48' W 122°24'0 0.0
2017-Nov-11 05:00N 37°48' W 122°24'3 5.6
2017-Nov-11 04:30N 37°49' W 122°27'5 7.7
2017-Nov-11 03:47N 37°47' W 122°34'619.7
2017-Nov-11 03:31N 37°49' W 122°27'3 5.5
2017-Nov-11 03:00N 37°48' W 122°24'0 0.0
2017-Nov-11 02:30N 37°48' W 122°24'3 5.7
2017-Nov-11 02:00N 37°46' W 122°21'2 3.5
2017-Nov-11 01:30N 37°48' W 122°21'2 4.1
2017-Nov-11 01:01N 37°46' W 122°21'3 5.5
2017-Nov-11 00:30N 37°48' W 122°24'0 0.0
2017-Nov-11 00:00N 37°48' W 122°24'0 0.0
2017-Nov-10 23:30N 37°48' W 122°24'4 8.0
2017-Nov-10 23:00N 37°49' W 122°29'4 8.0
2017-Nov-10 22:30N 37°48' W 122°24'0 0.0
2017-Nov-10 22:00N 37°48' W 122°24'0 0.0
2017-Nov-10 21:30N 37°48' W 122°24'0 0.0
2017-Nov-10 21:00N 37°48' W 122°24'0 0.0
2017-Nov-10 20:30N 37°48' W 122°24'0 0.0
2017-Nov-10 20:00N 37°48' W 122°24'0 0.0
2017-Nov-10 19:30N 37°48' W 122°24'0 0.0
2017-Nov-10 19:00N 37°48' W 122°24'510.3
2017-Nov-10 18:30N 37°44' W 122°20'510.2
2017-Nov-10 18:00N 37°48' W 122°24'0 0.0
2017-Nov-10 17:30N 37°48' W 122°24'0 0.0
2017-Nov-10 17:00N 37°48' W 122°24'2 3.5
2017-Nov-10 16:30N 37°48' W 122°22'510.6
2017-Nov-10 16:01N 37°49' W 122°28'2 4.8
2017-Nov-10 15:31N 37°49' W 122°25'4 8.8
2017-Nov-10 15:01N 37°48' W 122°20'3 6.4
2017-Nov-10 14:30N 37°48' W 122°24'0 0.0
2017-Nov-10 14:00N 37°48' W 122°24'0 0.0
2017-Nov-10 13:30N 37°48' W 122°24'2 4.3
2017-Nov-10 13:00N 37°48' W 122°21'510.7
2017-Nov-10 12:30N 37°49' W 122°28'612.4
2017-Nov-10 12:01N 37°49' W 122°20'4 8.0
2017-Nov-10 11:31N 37°49' W 122°25'810.7
2017-Nov-10 10:48N 37°47' W 122°34'517.7
2017-Nov-10 10:30N 37°49' W 122°28'4 7.2
2017-Nov-10 10:00N 37°48' W 122°24'0 0.0
2017-Nov-10 09:30N 37°48' W 122°24'0 0.0
2017-Nov-10 09:00N 37°48' W 122°24'0 0.0
2017-Nov-10 08:30N 37°48' W 122°24'0 0.0
2017-Nov-10 08:00N 37°48' W 122°24'0 0.0
2017-Nov-10 07:30N 37°48' W 122°24'2 5.0
2017-Nov-10 07:00N 37°48' W 122°21'2 4.9
2017-Nov-10 06:30N 37°48' W 122°24'2 4.6
2017-Nov-10 06:00N 37°47' W 122°21'2 4.6
2017-Nov-10 05:30N 37°48' W 122°24'0 0.0
2017-Nov-10 05:00N 37°48' W 122°24'0 0.0
2017-Nov-10 04:30N 37°48' W 122°24'3 6.9
2017-Nov-10 04:00N 37°46' W 122°21'3 6.9
2017-Nov-10 03:31N 37°48' W 122°24'0 0.0
2017-Nov-10 03:00N 37°48' W 122°24'0 0.0
2017-Nov-10 02:31N 37°48' W 122°24'0 0.0
2017-Nov-10 02:01N 37°48' W 122°24'0 0.0
2017-Nov-10 01:31N 37°48' W 122°24'1 2.7
2017-Nov-10 01:01N 37°48' W 122°22'  

Dump ship's entire track history